createdAt,value
2023-05-01T00:03:23.268Z,44.77
2023-05-01T00:08:26.208Z,49.35
2023-05-01T00:13:29.020Z,44.70
2023-05-01T00:18:33.480Z,30.13
2023-05-01T00:23:37.686Z,23.35
2023-05-01T00:28:40.384Z,25.27
2023-05-01T00:33:45.765Z,21.77
2023-05-01T00:38:49.781Z,17.85
2023-05-01T00:43:53.998Z,19.80
2023-05-01T00:48:59.664Z,23.60
2023-05-01T00:54:03.037Z,22.27
2023-05-01T00:59:08.239Z,21.17
2023-05-01T01:04:11.157Z,25.70
2023-05-01T01:10:00.719Z,21.67
2023-05-01T01:15:19.696Z,25.77
2023-05-01T01:20:35.349Z,24.63
2023-05-01T01:25:50.435Z,23.95
2023-05-01T01:31:15.592Z,25.05
2023-05-01T01:36:28.327Z,19.02
2023-05-01T01:41:36.403Z,20.40
2023-05-01T01:46:41.652Z,22.20
2023-05-01T01:51:46.047Z,23.58
2023-05-01T01:56:52.233Z,22.67
2023-05-01T02:01:55.629Z,23.58
2023-05-01T02:06:59.053Z,19.95
2023-05-01T02:12:03.135Z,25.70
2023-05-01T02:17:08.043Z,26.92
2023-05-01T02:22:11.230Z,26.35
2023-05-01T02:27:24.631Z,22.15
2023-05-01T02:32:28.928Z,23.17
2023-05-01T02:37:32.612Z,20.42
2023-05-01T02:42:38.404Z,25.13
2023-05-01T02:47:42.925Z,24.65
2023-05-01T02:52:46.656Z,23.50
2023-05-01T02:58:17.220Z,25.92
2023-05-01T03:03:23.143Z,16.58
2023-05-01T03:08:26.137Z,25.88
2023-05-01T03:13:33.811Z,24.48
2023-05-01T03:18:36.559Z,23.63
2023-05-01T03:23:39.458Z,22.40
2023-05-01T03:28:42.292Z,20.60
2023-05-01T03:33:46.168Z,21.97
2023-05-01T03:38:51.579Z,20.83
2023-05-01T03:44:03.328Z,21.08
2023-05-01T03:49:13.923Z,19.48
2023-05-01T03:54:22.512Z,20.35
2023-05-01T03:59:51.823Z,19.45
2023-05-01T04:04:55.434Z,21.48
2023-05-01T04:09:58.701Z,20.23
2023-05-01T04:15:03.018Z,16.55
2023-05-01T04:20:11.310Z,21.40
2023-05-01T04:25:14.523Z,18.90
2023-05-01T04:30:17.970Z,14.88
2023-05-01T04:35:22.571Z,19.80
2023-05-01T04:40:25.772Z,15.70
2023-05-01T04:45:31.031Z,16.00
2023-05-01T04:50:35.689Z,16.88
2023-05-01T04:55:40.750Z,13.35
2023-05-01T05:00:49.244Z,13.63
2023-05-01T05:05:56.772Z,15.15
2023-05-01T05:11:01.776Z,13.30
2023-05-01T05:16:21.014Z,15.00
2023-05-01T05:21:25.007Z,12.48
2023-05-01T05:26:31.409Z,10.52
2023-05-01T05:31:38.057Z,12.60
2023-05-01T05:36:41.361Z,12.20
2023-05-01T05:41:44.809Z,13.13
2023-05-01T05:46:47.970Z,10.73
2023-05-01T05:52:03.163Z,9.13
2023-05-01T05:57:05.958Z,11.90
2023-05-01T06:02:10.823Z,9.82
2023-05-01T06:07:14.098Z,9.27
2023-05-01T06:12:17.329Z,10.18
2023-05-01T06:17:20.728Z,9.57
2023-05-01T06:22:25.125Z,10.43
2023-05-01T06:27:36.873Z,11.60
2023-05-01T06:32:46.064Z,11.50
2023-05-01T06:37:54.754Z,10.48
2023-05-01T06:42:58.575Z,11.65
2023-05-01T06:48:07.311Z,15.23
2023-05-01T06:53:12.753Z,12.07
2023-05-01T07:03:28.077Z,11.10
2023-05-01T07:08:31.203Z,12.30
2023-05-01T07:13:33.971Z,9.65
2023-05-01T07:23:46.683Z,13.95
2023-05-01T07:28:49.742Z,9.88
2023-05-01T07:33:54.299Z,11.95
2023-05-01T07:38:58.129Z,14.20
2023-05-01T07:44:01.162Z,12.15
2023-05-01T07:49:04.557Z,12.75
2023-05-01T07:54:07.250Z,13.10
2023-05-01T07:59:16.046Z,9.85
2023-05-01T08:04:19.292Z,10.32
2023-05-01T08:09:22.331Z,14.23
2023-05-01T08:14:25.258Z,10.98
2023-05-01T08:19:29.737Z,12.05
2023-05-01T08:24:33.197Z,11.77
2023-05-01T08:29:38.245Z,11.40
2023-05-01T08:34:43.483Z,15.13
2023-05-01T08:39:46.416Z,11.15
2023-05-01T08:44:52.598Z,13.10
2023-05-01T08:50:01.871Z,12.02
2023-05-01T08:55:16.104Z,25.45
2023-05-01T09:00:21.356Z,17.92
2023-05-01T09:05:24.384Z,8.52
2023-05-01T09:10:27.826Z,11.55
2023-05-01T09:15:34.308Z,10.70
2023-05-01T09:20:39.700Z,9.02
2023-05-01T09:25:43.386Z,8.15
2023-05-01T09:30:49.151Z,9.50
2023-05-01T09:36:03.158Z,10.82
2023-05-01T09:41:06.691Z,8.60
2023-05-01T09:46:13.338Z,10.25
2023-05-01T09:51:30.374Z,6.97
2023-05-01T09:56:34.500Z,11.20
2023-05-01T10:01:42.980Z,8.88
2023-05-01T10:06:46.388Z,8.80
2023-05-01T10:11:53.892Z,7.32
2023-05-01T10:16:59.973Z,8.82
2023-05-01T10:22:04.289Z,12.50
2023-05-01T10:27:08.101Z,28.00
2023-05-01T10:32:11.459Z,15.88
2023-05-01T10:37:25.072Z,35.55
2023-05-01T10:42:28.978Z,10.10
2023-05-01T10:47:32.693Z,7.82
2023-05-01T10:53:14.774Z,11.93
2023-05-01T10:58:42.941Z,7.65
2023-05-01T11:03:45.992Z,8.57
2023-05-01T11:08:51.904Z,8.45
2023-05-01T11:14:12.778Z,10.40
2023-05-01T11:19:22.241Z,10.30
2023-05-01T11:24:36.552Z,8.35
2023-05-01T11:29:39.303Z,9.10
2023-05-01T11:34:46.095Z,9.25
2023-05-01T11:39:51.716Z,9.27
2023-05-01T11:45:12.987Z,8.05
2023-05-01T11:50:17.274Z,8.02
2023-05-01T11:55:22.325Z,9.70
2023-05-01T12:00:30.240Z,7.70
2023-05-01T12:05:37.509Z,9.80
2023-05-01T12:10:46.756Z,7.65
2023-05-01T12:15:53.202Z,10.93
2023-05-01T12:20:57.000Z,10.40
2023-05-01T12:26:00.536Z,9.45
2023-05-01T12:31:05.464Z,9.43
2023-05-01T12:36:11.496Z,8.25
2023-05-01T12:41:16.311Z,10.27
2023-05-01T12:46:20.352Z,7.78
2023-05-01T12:51:24.239Z,9.57
2023-05-01T12:56:28.007Z,9.43
2023-05-01T13:01:34.974Z,8.65
2023-05-01T13:06:37.821Z,6.10
2023-05-01T13:12:08.800Z,7.50
2023-05-01T13:17:30.002Z,11.07
2023-05-01T13:22:38.999Z,8.88
2023-05-01T13:27:42.495Z,7.80
2023-05-01T13:32:46.738Z,6.05
2023-05-01T13:37:51.008Z,11.02
2023-05-01T13:42:55.267Z,11.82
2023-05-01T13:47:58.560Z,14.07
2023-05-01T13:53:03.753Z,10.25
2023-05-01T13:58:13.930Z,12.18
2023-05-01T14:03:17.030Z,8.55
2023-05-01T14:08:27.863Z,9.93
2023-05-01T14:13:33.889Z,8.15
2023-05-01T14:18:45.648Z,7.35
2023-05-01T14:23:49.320Z,14.45
2023-05-01T14:28:52.726Z,12.20
2023-05-01T14:34:02.622Z,9.93
2023-05-01T14:39:10.002Z,8.60
2023-05-01T14:44:18.638Z,8.45
2023-05-01T14:49:23.025Z,9.23
2023-05-01T14:54:25.781Z,7.70
2023-05-01T14:59:33.280Z,6.88
2023-05-01T15:04:36.771Z,5.82
2023-05-01T15:09:43.069Z,6.75
2023-05-01T15:14:46.139Z,8.95
2023-05-01T15:19:48.964Z,6.47
2023-05-01T15:24:52.397Z,7.35
2023-05-01T15:29:55.341Z,6.32
2023-05-01T15:34:58.618Z,8.60
2023-05-01T15:40:01.666Z,4.60
2023-05-01T15:45:06.559Z,8.55
2023-05-01T15:50:13.060Z,5.43
2023-05-01T15:55:18.561Z,4.95
2023-05-01T16:00:22.496Z,6.32
2023-05-01T16:05:25.787Z,5.28
2023-05-01T16:10:28.746Z,6.63
2023-05-01T16:15:32.673Z,6.43
2023-05-01T16:20:40.018Z,8.25
2023-05-01T16:25:43.738Z,5.30
2023-05-01T16:30:49.311Z,12.00
2023-05-01T16:35:52.652Z,6.22
2023-05-01T16:45:59.107Z,8.60
2023-05-01T16:56:09.352Z,6.75
2023-05-01T17:01:12.735Z,4.00
2023-05-01T17:06:16.486Z,6.88
2023-05-01T17:11:19.567Z,4.78
2023-05-01T17:16:22.371Z,5.47
2023-05-01T17:21:36.274Z,4.88
2023-05-01T17:26:45.589Z,7.13
2023-05-01T17:31:48.629Z,6.53
2023-05-01T17:36:51.428Z,18.65
2023-05-01T17:41:54.736Z,19.92
2023-05-01T17:46:58.974Z,14.40
2023-05-01T17:52:03.055Z,23.75
2023-05-01T17:57:07.179Z,22.40
2023-05-01T18:02:12.866Z,22.83
2023-05-01T18:07:16.179Z,37.45
2023-05-01T18:12:21.566Z,32.17
2023-05-01T18:17:24.534Z,21.05
2023-05-01T18:22:29.079Z,13.48
2023-05-01T18:27:37.697Z,12.02
2023-05-01T18:32:48.838Z,15.35
2023-05-01T18:37:51.926Z,10.10
2023-05-01T18:42:54.581Z,9.05
2023-05-01T18:47:57.241Z,11.15
2023-05-01T18:53:00.082Z,12.88
2023-05-01T18:58:02.878Z,15.90
2023-05-01T19:03:05.554Z,18.83
2023-05-01T19:08:09.279Z,34.43
2023-05-01T19:13:12.515Z,20.55
2023-05-01T19:18:16.439Z,33.33
2023-05-01T19:23:19.359Z,55.97
2023-05-01T19:28:21.899Z,43.63
2023-05-01T19:33:29.296Z,37.08
2023-05-01T19:38:31.962Z,34.42
2023-05-01T19:43:34.617Z,31.17
2023-05-01T19:48:37.366Z,33.63
2023-05-01T19:53:39.933Z,28.13
2023-05-01T19:58:42.486Z,22.43
2023-05-01T20:03:45.524Z,39.27
2023-05-01T20:08:48.558Z,46.83
2023-05-01T20:13:51.537Z,44.50
2023-05-01T20:18:54.041Z,45.53
2023-05-01T20:23:59.399Z,39.05
2023-05-01T20:29:02.109Z,23.93
2023-05-01T20:34:12.311Z,39.72
2023-05-01T20:39:16.037Z,48.83
2023-05-01T20:44:18.565Z,48.47
2023-05-01T20:49:23.140Z,51.77
2023-05-01T20:54:25.826Z,50.83
2023-05-01T20:59:29.888Z,33.90
2023-05-01T21:04:32.718Z,27.23
2023-05-01T21:09:36.334Z,20.45
2023-05-01T21:14:39.620Z,20.08
2023-05-01T21:19:44.988Z,14.80
2023-05-01T21:24:57.045Z,15.50
2023-05-01T21:30:01.443Z,15.98
2023-05-01T21:35:04.495Z,14.63
2023-05-01T21:40:07.636Z,12.43
2023-05-01T21:45:13.287Z,16.52
2023-05-01T21:50:17.478Z,16.42
2023-05-01T21:55:21.877Z,18.45
2023-05-01T22:00:25.009Z,20.45
2023-05-01T22:05:31.174Z,17.08
2023-05-01T22:10:33.625Z,13.15
2023-05-01T22:15:36.058Z,14.63
2023-05-01T22:20:38.583Z,16.92
2023-05-01T22:25:41.207Z,15.83
2023-05-01T22:30:44.597Z,15.93
2023-05-01T22:35:47.060Z,16.80
2023-05-01T22:40:49.531Z,27.83
2023-05-01T22:45:52.017Z,52.80
2023-05-01T22:50:54.594Z,68.60
2023-05-01T22:56:01.474Z,50.77
2023-05-01T23:01:04.097Z,54.22
2023-05-01T23:06:07.309Z,34.35
2023-05-01T23:11:16.890Z,37.65
2023-05-01T23:16:23.596Z,31.30
2023-05-01T23:21:28.330Z,29.80
2023-05-01T23:26:31.145Z,25.80
2023-05-01T23:31:34.085Z,24.55
2023-05-01T23:36:37.904Z,25.70
2023-05-01T23:41:41.776Z,20.83
2023-05-01T23:46:44.797Z,26.95
2023-05-01T23:51:49.978Z,22.95
2023-05-01T23:56:57.640Z,20.45
